createdAt,value
2018-09-23T00:01:32.544Z,98031.88
2018-09-23T00:04:00.301Z,98037.22
2018-09-23T00:06:28.304Z,98040.36
2018-09-23T00:08:56.050Z,98034.28
2018-09-23T00:11:23.816Z,98024.40
2018-09-23T00:13:51.813Z,98017.97
2018-09-23T00:16:19.637Z,98016.07
2018-09-23T00:18:47.447Z,98020.09
2018-09-23T00:21:15.410Z,98010.34
2018-09-23T00:23:43.254Z,98007.34
2018-09-23T00:26:11.072Z,97994.44
2018-09-23T00:28:39.220Z,97997.77
2018-09-23T00:31:06.972Z,97993.83
2018-09-23T00:33:34.659Z,97995.76
2018-09-23T00:36:02.326Z,97988.95
2018-09-23T00:38:30.027Z,97979.88
2018-09-23T00:40:57.821Z,97973.39
2018-09-23T00:43:25.510Z,97969.45
2018-09-23T00:45:53.183Z,97967.98
2018-09-23T00:48:20.888Z,97965.61
2018-09-23T00:50:48.561Z,97968.64
2018-09-23T00:53:16.217Z,97966.64
2018-09-23T00:55:43.920Z,97969.23
2018-09-23T00:58:11.651Z,97964.35
2018-09-23T01:00:39.337Z,97963.68
2018-09-23T01:03:07.121Z,97958.30
2018-09-23T01:05:34.834Z,97971.73
2018-09-23T01:08:02.498Z,97964.03
2018-09-23T01:10:30.325Z,97962.08
2018-09-23T01:12:58.251Z,97956.73
2018-09-23T01:15:25.962Z,97954.62
2018-09-23T01:17:53.644Z,97950.87
2018-09-23T01:20:21.466Z,97951.91
2018-09-23T01:22:49.377Z,97956.23
2018-09-23T01:25:17.147Z,97947.87
2018-09-23T01:27:44.930Z,97952.19
2018-09-23T01:30:12.705Z,97963.59
2018-09-23T01:32:40.455Z,97969.20
2018-09-23T01:35:08.279Z,97970.62
2018-09-23T01:37:36.139Z,97954.22
2018-09-23T01:40:03.927Z,97955.32
2018-09-23T01:42:31.706Z,97957.70
2018-09-23T01:44:59.508Z,97946.22
2018-09-23T01:47:27.282Z,97943.07
2018-09-23T01:49:55.016Z,97942.04
2018-09-23T01:52:22.788Z,97940.72
2018-09-23T01:54:50.610Z,97936.07
2018-09-23T01:57:18.314Z,97923.89
2018-09-23T01:59:46.124Z,97921.59
2018-09-23T02:02:14.038Z,97920.78
2018-09-23T02:04:41.747Z,97915.98
2018-09-23T02:07:09.489Z,97919.58
2018-09-23T02:09:37.309Z,97908.67
2018-09-23T02:12:05.061Z,97908.59
2018-09-23T02:14:32.846Z,97901.58
2018-09-23T02:17:00.603Z,97904.14
2018-09-23T02:19:28.357Z,97913.05
2018-09-23T02:21:56.133Z,97901.86
2018-09-23T02:24:23.870Z,97923.56
2018-09-23T02:26:51.647Z,97922.79
2018-09-23T02:29:19.423Z,97914.16
2018-09-23T02:31:47.192Z,97918.40
2018-09-23T02:34:15.015Z,97927.03
2018-09-23T02:36:42.845Z,97911.44
2018-09-23T02:39:11.414Z,97912.08
2018-09-23T02:41:39.280Z,97911.17
2018-09-23T02:44:07.027Z,97918.89
2018-09-23T02:46:34.862Z,97915.45
2018-09-23T02:49:02.736Z,97911.72
2018-09-23T02:51:30.517Z,97909.78
2018-09-23T02:53:58.240Z,97901.78
2018-09-23T02:56:25.946Z,97889.20
2018-09-23T02:58:53.690Z,97892.52
2018-09-23T03:01:21.440Z,97891.76
2018-09-23T03:03:49.192Z,97886.45
2018-09-23T03:06:17.094Z,97888.14
2018-09-23T03:08:45.236Z,97888.09
2018-09-23T03:11:13.128Z,97884.98
2018-09-23T03:13:40.856Z,97874.81
2018-09-23T03:16:08.701Z,97864.86
2018-09-23T03:18:36.590Z,97864.32
2018-09-23T03:21:04.361Z,97870.02
2018-09-23T03:23:32.103Z,97871.47
2018-09-23T03:25:59.824Z,97870.51
2018-09-23T03:28:27.642Z,97874.17
2018-09-23T03:30:55.454Z,97882.33
2018-09-23T03:33:23.267Z,97880.78
2018-09-23T03:35:51.111Z,97856.94
2018-09-23T03:38:18.870Z,97854.36
2018-09-23T03:40:46.627Z,97848.03
2018-09-23T03:43:14.424Z,97844.06
2018-09-23T03:45:42.184Z,97842.81
2018-09-23T03:48:09.906Z,97834.05
2018-09-23T03:50:37.750Z,97835.44
2018-09-23T03:53:05.515Z,97834.22
2018-09-23T03:55:33.219Z,97836.27
2018-09-23T03:58:01.070Z,97825.33
2018-09-23T04:00:28.772Z,97821.87
2018-09-23T04:02:56.553Z,97818.55
2018-09-23T04:05:24.279Z,97819.20
2018-09-23T04:07:52.087Z,97816.98
2018-09-23T04:10:19.865Z,97817.05
2018-09-23T04:12:47.601Z,97823.11
2018-09-23T04:15:15.407Z,97820.89
2018-09-23T04:17:43.148Z,97815.89
2018-09-23T04:20:10.920Z,97814.64
2018-09-23T04:22:46.302Z,97812.87
2018-09-23T04:25:14.130Z,97810.23
2018-09-23T04:27:41.940Z,97804.79
2018-09-23T04:30:09.744Z,97796.25
2018-09-23T04:32:37.505Z,97791.88
2018-09-23T04:35:05.306Z,97791.51
2018-09-23T04:37:33.067Z,97789.86
2018-09-23T04:40:00.841Z,97789.94
2018-09-23T04:42:28.667Z,97788.22
2018-09-23T04:44:56.676Z,97787.67
2018-09-23T04:47:24.448Z,97781.28
2018-09-23T04:49:52.247Z,97783.08
2018-09-23T04:52:20.041Z,97787.93
2018-09-23T04:54:47.759Z,97785.01
2018-09-23T04:57:15.478Z,97791.48
2018-09-23T04:59:43.293Z,97791.68
2018-09-23T05:02:11.108Z,97784.30
2018-09-23T05:04:38.786Z,97772.61
2018-09-23T05:07:06.519Z,97778.99
2018-09-23T05:09:34.229Z,97767.72
2018-09-23T05:12:02.070Z,97763.37
2018-09-23T05:14:29.796Z,97771.27
2018-09-23T05:16:57.755Z,97772.61
2018-09-23T05:19:25.513Z,97777.49
2018-09-23T05:21:53.480Z,97768.83
2018-09-23T05:24:21.266Z,97766.44
2018-09-23T05:26:49.052Z,97767.20
2018-09-23T05:29:17.061Z,97776.45
2018-09-23T05:31:44.872Z,97770.70
2018-09-23T05:34:12.691Z,97752.17
2018-09-23T05:36:40.398Z,97751.13
2018-09-23T05:39:09.316Z,97763.79
2018-09-23T05:41:37.080Z,97764.05
2018-09-23T05:44:04.904Z,97762.31
2018-09-23T05:46:32.590Z,97759.86
2018-09-23T05:49:00.428Z,97755.98
2018-09-23T05:51:28.342Z,97755.93
2018-09-23T05:53:56.030Z,97746.48
2018-09-23T05:56:23.712Z,97744.57
2018-09-23T05:58:51.435Z,97730.27
2018-09-23T06:01:19.217Z,97736.74
2018-09-23T06:03:46.944Z,97735.92
2018-09-23T06:06:14.628Z,97737.94
2018-09-23T06:08:42.393Z,97724.89
2018-09-23T06:11:10.142Z,97715.78
2018-09-23T06:13:37.847Z,97715.20
2018-09-23T06:16:05.563Z,97719.59
2018-09-23T06:18:33.774Z,97706.27
2018-09-23T06:21:01.512Z,97697.25
2018-09-23T06:23:29.311Z,97685.84
2018-09-23T06:25:57.123Z,97676.87
2018-09-23T06:28:24.788Z,97669.88
2018-09-23T06:30:52.549Z,97682.39
2018-09-23T06:33:20.547Z,97683.63
2018-09-23T06:35:48.227Z,97694.45
2018-09-23T06:38:15.922Z,97690.55
2018-09-23T06:40:43.778Z,97691.34
2018-09-23T06:43:11.474Z,97681.12
2018-09-23T06:45:39.221Z,97677.63
2018-09-23T06:48:06.868Z,97677.02
2018-09-23T06:50:35.699Z,97674.72
2018-09-23T06:53:04.051Z,97669.89
2018-09-23T06:55:31.943Z,97659.90
2018-09-23T06:57:59.779Z,97660.90
2018-09-23T07:00:27.504Z,97648.70
2018-09-23T07:02:55.570Z,97653.07
2018-09-23T07:05:23.288Z,97658.39
2018-09-23T07:07:51.182Z,97658.66
2018-09-23T07:10:18.932Z,97666.94
2018-09-23T07:12:46.615Z,97658.64
2018-09-23T07:15:14.432Z,97672.19
2018-09-23T07:17:42.295Z,97675.63
2018-09-23T07:20:10.058Z,97663.39
2018-09-23T07:22:37.838Z,97678.32
2018-09-23T07:25:05.684Z,97676.55
2018-09-23T07:27:33.545Z,97663.16
2018-09-23T07:30:01.362Z,97655.25
2018-09-23T07:32:29.144Z,97660.45
2018-09-23T07:34:56.859Z,97656.58
2018-09-23T07:37:25.608Z,97655.31
2018-09-23T07:39:53.631Z,97641.16
2018-09-23T07:42:22.457Z,97641.18
2018-09-23T07:44:50.285Z,97654.99
2018-09-23T07:47:18.185Z,97649.66
2018-09-23T07:49:46.133Z,97624.69
2018-09-23T07:52:14.238Z,97623.08
2018-09-23T07:54:42.118Z,97622.33
2018-09-23T07:57:09.872Z,97636.92
2018-09-23T07:59:37.815Z,97638.46
2018-09-23T08:02:06.081Z,97639.50
2018-09-23T08:04:34.263Z,97637.72
2018-09-23T08:07:02.382Z,97633.28
2018-09-23T08:09:30.335Z,97638.95
2018-09-23T08:11:58.330Z,97636.56
2018-09-23T08:14:26.423Z,97634.53
2018-09-23T08:16:54.180Z,97633.39
2018-09-23T08:19:22.513Z,97617.20
2018-09-23T08:21:50.373Z,97604.53
2018-09-23T08:24:18.391Z,97608.51
2018-09-23T08:26:46.414Z,97609.24
2018-09-23T08:29:14.358Z,97613.83
2018-09-23T08:31:42.059Z,97612.89
2018-09-23T08:34:09.926Z,97619.60
2018-09-23T08:36:37.629Z,97631.49
2018-09-23T08:39:06.537Z,97632.09
2018-09-23T08:41:35.206Z,97620.92
2018-09-23T08:44:03.185Z,97620.81
2018-09-23T08:46:30.942Z,97624.25
2018-09-23T08:48:58.822Z,97611.84
2018-09-23T08:51:26.597Z,97600.19
2018-09-23T08:53:55.118Z,97594.77
2018-09-23T08:56:23.625Z,97586.41
2018-09-23T08:58:52.284Z,97587.33
2018-09-23T09:01:20.598Z,97587.19
2018-09-23T09:03:48.467Z,97578.19
2018-09-23T09:06:16.208Z,97570.98
2018-09-23T09:08:43.977Z,97569.56
2018-09-23T09:11:11.869Z,97565.27
2018-09-23T09:13:39.733Z,97555.48
2018-09-23T09:16:07.497Z,97555.69
2018-09-23T09:18:35.280Z,97546.19
2018-09-23T09:21:03.179Z,97541.75
2018-09-23T09:23:31.196Z,97549.69
2018-09-23T09:25:59.221Z,97542.74
2018-09-23T09:28:27.665Z,97532.02
2018-09-23T09:30:55.421Z,97535.46
2018-09-23T09:33:23.235Z,97534.59
2018-09-23T09:35:51.038Z,97523.83
2018-09-23T09:38:18.816Z,97530.80
2018-09-23T09:40:46.591Z,97519.02
2018-09-23T09:43:14.412Z,97502.00
2018-09-23T09:45:42.318Z,97510.25
2018-09-23T09:48:10.243Z,97503.38
2018-09-23T09:50:38.092Z,97501.34
2018-09-23T09:53:06.060Z,97499.53
2018-09-23T09:55:33.781Z,97492.02
2018-09-23T09:58:01.700Z,97487.89
2018-09-23T10:00:34.543Z,97480.45
2018-09-23T10:03:03.720Z,97471.63
2018-09-23T10:05:31.544Z,97467.34
2018-09-23T10:07:59.503Z,97469.77
2018-09-23T10:10:27.285Z,97479.80
2018-09-23T10:12:55.128Z,97472.98
2018-09-23T10:15:23.098Z,97462.19
2018-09-23T10:17:51.345Z,97461.56
2018-09-23T10:20:19.057Z,97450.54
2018-09-23T10:22:46.902Z,97446.61
2018-09-23T10:25:14.633Z,97438.38
2018-09-23T10:27:42.342Z,97433.30
2018-09-23T10:30:10.754Z,97430.98
2018-09-23T10:32:38.656Z,97422.73
2018-09-23T10:35:06.542Z,97410.83
2018-09-23T10:37:34.594Z,97408.31
2018-09-23T10:40:02.366Z,97408.81
2018-09-23T10:42:30.073Z,97403.52
2018-09-23T10:44:57.857Z,97411.88
2018-09-23T10:47:25.664Z,97401.75
2018-09-23T10:49:53.433Z,97395.27
2018-09-23T10:52:21.195Z,97385.77
2018-09-23T10:54:48.995Z,97380.19
2018-09-23T10:57:16.674Z,97362.31
2018-09-23T10:59:44.473Z,97355.84
2018-09-23T11:02:12.649Z,97336.06
2018-09-23T11:04:40.418Z,97338.38
2018-09-23T11:07:08.276Z,97328.98
2018-09-23T11:09:36.090Z,97317.33
2018-09-23T11:12:03.944Z,97314.36
2018-09-23T11:14:31.718Z,97304.92
2018-09-23T11:16:59.494Z,97305.33
2018-09-23T11:19:27.405Z,97297.50
2018-09-23T11:21:55.098Z,97292.78
2018-09-23T11:24:22.910Z,97284.67
2018-09-23T11:26:50.729Z,97276.17
2018-09-23T11:29:18.529Z,97280.61
2018-09-23T11:31:46.291Z,97274.94
2018-09-23T11:34:14.336Z,97266.83
2018-09-23T11:36:42.584Z,97243.97
2018-09-23T11:39:11.593Z,97240.92
2018-09-23T11:41:39.358Z,97224.78
2018-09-23T11:44:07.119Z,97217.94
2018-09-23T11:46:34.831Z,97207.66
2018-09-23T11:49:02.747Z,97188.35
2018-09-23T11:51:30.616Z,97181.84
2018-09-23T11:53:58.444Z,97188.56
2018-09-23T11:56:26.194Z,97173.68
2018-09-23T11:58:54.112Z,97163.65
2018-09-23T12:01:21.906Z,97152.75
2018-09-23T12:03:49.673Z,97148.00
2018-09-23T12:06:17.487Z,97145.44
2018-09-23T12:08:45.261Z,97135.72
2018-09-23T12:11:13.173Z,97127.13
2018-09-23T12:13:41.012Z,97113.25
2018-09-23T12:16:08.814Z,97099.23
2018-09-23T12:18:36.595Z,97089.47
2018-09-23T12:21:04.462Z,97073.87
2018-09-23T12:23:32.276Z,97054.06
2018-09-23T12:26:00.166Z,97047.71
2018-09-23T12:28:27.913Z,97028.16
2018-09-23T12:30:55.659Z,97011.13
2018-09-23T12:33:23.529Z,96998.52
2018-09-23T12:35:51.534Z,96995.00
2018-09-23T12:38:19.323Z,96981.03
2018-09-23T12:40:47.089Z,96978.00
2018-09-23T12:43:14.905Z,96962.08
2018-09-23T12:45:42.653Z,96961.17
2018-09-23T12:48:10.436Z,96946.41
2018-09-23T12:50:38.220Z,96931.13
2018-09-23T12:53:06.057Z,96923.80
2018-09-23T12:55:33.868Z,96907.97
2018-09-23T12:58:01.633Z,96894.69
2018-09-23T13:00:29.418Z,96887.75
2018-09-23T13:02:57.142Z,96874.14
2018-09-23T13:05:24.935Z,96858.47
2018-09-23T13:07:53.069Z,96849.23
2018-09-23T13:10:20.881Z,96834.76
2018-09-23T13:12:48.639Z,96828.58
2018-09-23T13:15:16.473Z,96807.46
2018-09-23T13:17:44.426Z,96795.38
2018-09-23T13:20:12.169Z,96789.48
2018-09-23T13:22:40.003Z,96776.30
2018-09-23T13:25:07.758Z,96775.42
2018-09-23T13:27:35.529Z,96759.13
2018-09-23T13:30:03.464Z,96737.17
2018-09-23T13:32:31.189Z,96729.80
2018-09-23T13:34:59.004Z,96715.74
2018-09-23T13:37:26.821Z,96699.02
2018-09-23T13:39:54.651Z,96680.69
2018-09-23T13:42:22.377Z,96661.63
2018-09-23T13:44:50.117Z,96650.30
2018-09-23T13:47:18.010Z,96632.28
2018-09-23T13:49:45.770Z,96617.61
2018-09-23T13:52:14.462Z,96612.75
2018-09-23T13:54:42.271Z,96603.27
2018-09-23T13:57:10.048Z,96593.41
2018-09-23T13:59:37.881Z,96581.28
2018-09-23T14:02:05.650Z,96563.22
2018-09-23T14:04:33.414Z,96560.98
2018-09-23T14:07:01.676Z,96555.81
2018-09-23T14:09:29.603Z,96543.78
2018-09-23T14:11:57.533Z,96549.39
2018-09-23T14:14:25.311Z,96544.98
2018-09-23T14:16:53.089Z,96528.22
2018-09-23T14:19:20.830Z,96522.09
2018-09-23T14:21:48.660Z,96508.55
2018-09-23T14:24:16.470Z,96505.20
2018-09-23T14:26:44.493Z,96488.72
2018-09-23T14:29:12.359Z,96478.42
2018-09-23T14:31:40.122Z,96457.16
2018-09-23T14:34:07.837Z,96454.20
2018-09-23T14:36:35.666Z,96451.17
2018-09-23T14:39:04.191Z,96423.05
2018-09-23T14:41:32.008Z,96399.01
2018-09-23T14:43:59.852Z,96405.64
2018-09-23T14:46:27.594Z,96400.37
2018-09-23T14:48:55.367Z,96400.97
2018-09-23T14:51:23.218Z,96388.84
2018-09-23T14:53:51.031Z,96383.79
2018-09-23T14:56:18.745Z,96375.61
2018-09-23T14:58:46.601Z,96374.60
2018-09-23T15:01:14.415Z,96360.20
2018-09-23T15:03:42.221Z,96354.69
2018-09-23T15:06:09.893Z,96352.64
2018-09-23T15:08:37.585Z,96346.61
2018-09-23T15:11:05.420Z,96332.36
2018-09-23T15:13:33.177Z,96325.52
2018-09-23T15:16:00.866Z,96299.91
2018-09-23T15:18:28.663Z,96275.58
2018-09-23T15:20:56.476Z,96249.80
2018-09-23T15:23:24.161Z,96240.64
2018-09-23T15:25:51.915Z,96212.02
2018-09-23T15:28:19.689Z,96212.20
2018-09-23T15:30:47.516Z,96193.16
2018-09-23T15:33:15.368Z,96198.80
2018-09-23T15:35:43.310Z,96175.71
2018-09-23T15:38:11.145Z,96163.00
2018-09-23T15:40:38.975Z,96174.59
2018-09-23T15:43:07.159Z,96154.50
2018-09-23T15:45:34.895Z,96167.84
2018-09-23T15:48:02.655Z,96136.33
2018-09-23T15:50:30.498Z,96147.91
2018-09-23T15:52:58.304Z,96117.55
2018-09-23T15:55:26.128Z,96078.83
2018-09-23T15:57:54.025Z,96138.81
2018-09-23T16:00:21.713Z,96139.33
2018-09-23T16:02:49.529Z,96092.70
2018-09-23T16:05:17.428Z,96011.55
2018-09-23T16:07:45.236Z,96045.95
2018-09-23T16:10:13.027Z,96051.97
2018-09-23T16:12:41.105Z,96284.95
2018-09-23T16:15:08.835Z,96360.27
2018-09-23T16:17:36.616Z,96281.79
2018-09-23T16:20:04.526Z,96220.73
2018-09-23T16:22:32.240Z,96169.36
2018-09-23T16:25:00.073Z,96172.74
2018-09-23T16:27:27.797Z,96245.61
2018-09-23T16:29:55.591Z,96267.34
2018-09-23T16:32:23.468Z,96282.52
2018-09-23T16:34:51.230Z,96324.91
2018-09-23T16:37:18.972Z,96316.98
2018-09-23T16:39:46.824Z,96345.48
2018-09-23T16:42:14.625Z,96359.67
2018-09-23T16:44:42.381Z,96387.16
2018-09-23T16:47:10.161Z,96374.95
2018-09-23T16:49:37.906Z,96369.06
2018-09-23T16:52:05.733Z,96386.09
2018-09-23T16:54:33.680Z,96368.42
2018-09-23T16:57:01.426Z,96364.31
2018-09-23T16:59:30.748Z,96386.38
2018-09-23T17:01:58.996Z,96391.73
2018-09-23T17:04:27.069Z,96398.45
2018-09-23T17:06:54.830Z,96364.60
2018-09-23T17:09:23.301Z,96325.15
2018-09-23T17:11:51.399Z,96290.02
2018-09-23T17:14:19.342Z,96214.81
2018-09-23T17:16:47.135Z,96248.88
2018-09-23T17:19:15.067Z,96220.39
2018-09-23T17:21:43.012Z,96230.36
2018-09-23T17:24:10.753Z,96240.75
2018-09-23T17:26:38.621Z,96233.67
2018-09-23T17:29:06.810Z,96245.98
2018-09-23T17:31:34.676Z,96254.45
2018-09-23T17:34:03.603Z,96302.34
2018-09-23T17:36:31.478Z,96312.32
2018-09-23T17:38:59.213Z,96358.93
2018-09-23T17:41:26.977Z,96417.30
2018-09-23T17:43:54.772Z,96488.92
2018-09-23T17:46:22.500Z,96530.81
2018-09-23T17:48:50.611Z,96514.50
2018-09-23T17:51:18.313Z,96513.89
2018-09-23T17:53:46.187Z,96474.74
2018-09-23T17:56:13.971Z,96421.24
2018-09-23T17:58:41.691Z,96477.83
2018-09-23T18:01:09.539Z,96536.39
2018-09-23T18:03:37.296Z,96557.64
2018-09-23T18:06:05.033Z,96543.98
2018-09-23T18:08:32.786Z,96517.05
2018-09-23T18:11:00.616Z,96560.72
2018-09-23T18:13:28.298Z,96588.89
2018-09-23T18:15:56.089Z,96604.69
2018-09-23T18:18:24.230Z,96609.03
2018-09-23T18:20:52.142Z,96627.08
2018-09-23T18:23:20.789Z,96625.95
2018-09-23T18:25:48.700Z,96642.41
2018-09-23T18:28:16.578Z,96616.39
2018-09-23T18:30:44.522Z,96598.95
2018-09-23T18:33:12.426Z,96595.72
2018-09-23T18:35:40.203Z,96624.94
2018-09-23T18:38:08.096Z,96643.22
2018-09-23T18:40:35.876Z,96658.28
2018-09-23T18:43:03.808Z,96645.41
2018-09-23T18:45:31.615Z,96670.20
2018-09-23T18:47:59.416Z,96700.30
2018-09-23T18:50:27.690Z,96700.42
2018-09-23T18:53:01.223Z,96715.20
2018-09-23T18:55:44.706Z,96763.31
2018-09-23T18:58:12.611Z,96785.59
2018-09-23T19:00:40.485Z,96812.86
2018-09-23T19:03:08.733Z,96802.38
2018-09-23T19:05:36.978Z,96802.38
2018-09-23T19:08:04.837Z,96830.66
2018-09-23T19:10:32.696Z,96858.69
2018-09-23T19:13:06.241Z,96879.05
2018-09-23T19:15:34.666Z,96881.07
2018-09-23T19:18:03.085Z,96855.80
2018-09-23T19:20:31.249Z,96820.83
2018-09-23T19:23:04.580Z,96825.64
2018-09-23T19:25:32.694Z,96840.83
2018-09-23T19:28:00.825Z,96836.30
2018-09-23T19:30:28.665Z,96875.78
2018-09-23T19:32:56.546Z,96920.63
2018-09-23T19:35:25.437Z,96956.88
2018-09-23T19:37:53.398Z,96994.08
2018-09-23T19:40:21.573Z,97054.02
2018-09-23T19:42:49.435Z,97039.47
2018-09-23T19:45:17.157Z,97044.22
2018-09-23T19:47:45.049Z,97064.08
2018-09-23T19:50:12.795Z,97056.00
2018-09-23T19:52:40.561Z,97033.50
2018-09-23T19:55:08.443Z,96994.98
2018-09-23T19:57:36.397Z,96979.56
2018-09-23T20:00:04.269Z,96993.53
2018-09-23T20:02:32.329Z,97021.23
2018-09-23T20:05:00.161Z,97048.80
2018-09-23T20:07:27.885Z,97077.61
2018-09-23T20:09:55.684Z,97093.39
2018-09-23T20:12:23.428Z,97121.09
2018-09-23T20:14:51.372Z,97197.20
2018-09-23T20:17:19.208Z,97258.43
2018-09-23T20:19:48.754Z,97281.35
2018-09-23T20:22:16.665Z,97230.70
2018-09-23T20:24:44.530Z,97233.87
2018-09-23T20:27:12.335Z,97231.09
2018-09-23T20:29:40.051Z,97250.80
2018-09-23T20:32:07.831Z,97288.13
2018-09-23T20:34:35.589Z,97301.70
2018-09-23T20:37:04.083Z,97288.69
2018-09-23T20:39:32.073Z,97300.65
2018-09-23T20:41:59.850Z,97332.31
2018-09-23T20:44:27.608Z,97311.53
2018-09-23T20:46:55.515Z,97347.26
2018-09-23T20:49:23.596Z,97356.33
2018-09-23T20:51:51.714Z,97360.12
2018-09-23T20:54:19.512Z,97366.94
2018-09-23T20:56:47.640Z,97400.02
2018-09-23T20:59:15.587Z,97407.13
2018-09-23T21:01:43.504Z,97392.80
2018-09-23T21:04:11.298Z,97376.52
2018-09-23T21:06:39.048Z,97424.13
2018-09-23T21:09:08.627Z,97428.36
2018-09-23T21:11:36.556Z,97454.19
2018-09-23T21:14:04.585Z,97489.02
2018-09-23T21:16:32.376Z,97484.95
2018-09-23T21:19:00.133Z,97484.18
2018-09-23T21:21:27.869Z,97489.09
2018-09-23T21:23:56.688Z,97497.61
2018-09-23T21:26:24.488Z,97516.95
2018-09-23T21:28:52.535Z,97522.23
2018-09-23T21:31:21.450Z,97536.09
2018-09-23T21:33:49.214Z,97542.08
2018-09-23T21:36:16.994Z,97554.33
2018-09-23T21:38:45.011Z,97563.55
2018-09-23T21:41:12.813Z,97582.00
2018-09-23T21:43:40.560Z,97587.27
2018-09-23T21:46:08.550Z,97608.75
2018-09-23T21:48:36.400Z,97610.17
2018-09-23T21:51:04.122Z,97623.28
2018-09-23T21:53:31.906Z,97625.64
2018-09-23T21:55:59.658Z,97634.23
2018-09-23T21:58:27.474Z,97640.42
2018-09-23T22:00:55.261Z,97646.15
2018-09-23T22:03:23.149Z,97659.06
2018-09-23T22:05:50.934Z,97675.31
2018-09-23T22:08:18.699Z,97667.02
2018-09-23T22:10:46.449Z,97683.30
2018-09-23T22:13:14.271Z,97692.40
2018-09-23T22:15:42.017Z,97700.51
2018-09-23T22:18:09.734Z,97709.42
2018-09-23T22:20:37.646Z,97712.06
2018-09-23T22:23:05.415Z,97720.48
2018-09-23T22:25:33.189Z,97726.02
2018-09-23T22:28:00.939Z,97740.48
2018-09-23T22:30:28.713Z,97742.05
2018-09-23T22:32:56.518Z,97749.71
2018-09-23T22:35:24.245Z,97753.09
2018-09-23T22:37:51.998Z,97755.58
2018-09-23T22:40:19.714Z,97748.69
2018-09-23T22:42:47.455Z,97758.52
2018-09-23T22:45:15.160Z,97758.65
2018-09-23T22:47:42.896Z,97759.20
2018-09-23T22:50:10.675Z,97763.67
2018-09-23T22:52:38.409Z,97759.84
2018-09-23T22:55:06.203Z,97769.07
2018-09-23T22:57:34.029Z,97777.88
2018-09-23T23:00:02.250Z,97785.69
2018-09-23T23:02:31.467Z,97783.69
2018-09-23T23:05:00.840Z,97802.74
2018-09-23T23:07:29.204Z,97807.20
2018-09-23T23:09:57.164Z,97815.63
2018-09-23T23:12:25.002Z,97823.33
2018-09-23T23:14:52.817Z,97827.81
2018-09-23T23:17:20.825Z,97826.41
2018-09-23T23:19:48.615Z,97850.56
2018-09-23T23:22:16.385Z,97853.92
2018-09-23T23:24:44.090Z,97853.16
2018-09-23T23:27:11.846Z,97859.02
2018-09-23T23:29:39.566Z,97874.82
2018-09-23T23:32:07.493Z,97891.87
2018-09-23T23:34:35.240Z,97904.45
2018-09-23T23:37:02.964Z,97925.49
2018-09-23T23:39:30.760Z,97933.81
2018-09-23T23:41:58.531Z,97923.05
2018-09-23T23:44:26.289Z,97925.69
2018-09-23T23:46:53.971Z,97927.18
2018-09-23T23:49:22.018Z,97943.17
2018-09-23T23:51:50.992Z,97951.63
2018-09-23T23:54:19.244Z,97964.53
2018-09-23T23:56:47.011Z,97981.12
2018-09-23T23:59:14.718Z,97986.02
